createdAt,value
2023-03-06T00:00:52.488Z,88.59
2023-03-06T00:03:21.724Z,88.63
2023-03-06T00:05:50.937Z,88.76
2023-03-06T00:08:19.960Z,88.69
2023-03-06T00:10:48.852Z,89.00
2023-03-06T00:13:19.457Z,88.96
2023-03-06T00:15:48.955Z,88.94
2023-03-06T00:18:18.185Z,89.06
2023-03-06T00:20:47.856Z,89.13
2023-03-06T00:23:16.671Z,89.03
2023-03-06T00:25:45.707Z,89.15
2023-03-06T00:28:15.272Z,89.01
2023-03-06T00:30:47.029Z,88.96
2023-03-06T00:33:16.072Z,88.92
2023-03-06T00:35:45.185Z,88.99
2023-03-06T00:38:14.142Z,89.05
2023-03-06T00:40:44.375Z,89.01
2023-03-06T00:43:13.353Z,88.96
2023-03-06T00:45:44.806Z,88.89
2023-03-06T00:48:15.707Z,88.98
2023-03-06T00:50:45.631Z,88.92
2023-03-06T00:53:14.483Z,89.06
2023-03-06T00:55:46.003Z,89.16
2023-03-06T00:58:14.857Z,89.17
2023-03-06T01:00:44.771Z,89.05
2023-03-06T01:03:16.300Z,89.28
2023-03-06T01:05:45.393Z,89.18
2023-03-06T01:08:14.171Z,89.21
2023-03-06T01:10:48.869Z,89.12
2023-03-06T01:13:18.650Z,89.25
2023-03-06T01:15:47.854Z,89.21
2023-03-06T01:18:16.736Z,89.26
2023-03-06T01:20:45.772Z,89.30
2023-03-06T01:23:15.507Z,89.28
2023-03-06T01:25:44.739Z,89.26
2023-03-06T01:28:13.492Z,89.28
2023-03-06T01:30:43.610Z,89.24
2023-03-06T01:33:12.536Z,89.31
2023-03-06T01:35:42.134Z,89.25
2023-03-06T01:38:12.047Z,89.00
2023-03-06T01:40:42.150Z,89.05
2023-03-06T01:43:25.719Z,89.06
2023-03-06T01:46:28.395Z,89.21
2023-03-06T01:49:05.979Z,89.30
2023-03-06T01:51:43.217Z,89.31
2023-03-06T01:54:20.534Z,89.39
2023-03-06T01:56:56.810Z,89.29
2023-03-06T01:59:27.984Z,89.40
2023-03-06T02:02:01.716Z,89.24
2023-03-06T02:04:32.016Z,89.21
2023-03-06T02:07:04.316Z,89.25
2023-03-06T02:09:37.953Z,89.27
2023-03-06T02:12:11.468Z,89.42
2023-03-06T02:14:46.469Z,89.33
2023-03-06T02:17:18.603Z,89.48
2023-03-06T02:20:00.121Z,89.51
2023-03-06T02:22:37.161Z,89.47
2023-03-06T02:25:21.451Z,89.54
2023-03-06T02:27:51.116Z,89.50
2023-03-06T02:30:21.557Z,89.49
2023-03-06T02:32:52.416Z,89.52
2023-03-06T02:35:24.636Z,89.50
2023-03-06T02:37:59.105Z,89.45
2023-03-06T02:40:28.746Z,89.43
2023-03-06T02:42:59.368Z,89.50
2023-03-06T02:45:35.696Z,89.41
2023-03-06T02:48:05.691Z,89.42
2023-03-06T02:50:34.906Z,89.42
2023-03-06T02:53:04.402Z,89.51
2023-03-06T02:55:35.626Z,89.61
2023-03-06T02:58:06.145Z,89.56
2023-03-06T03:00:35.840Z,89.53
2023-03-06T03:03:06.414Z,89.56
2023-03-06T03:05:38.932Z,89.55
2023-03-06T03:08:14.542Z,89.52
2023-03-06T03:10:44.463Z,89.47
2023-03-06T03:13:15.699Z,89.49
2023-03-06T03:15:45.246Z,89.40
2023-03-06T03:18:15.484Z,89.35
2023-03-06T03:20:44.484Z,89.26
2023-03-06T03:23:14.127Z,89.30
2023-03-06T03:25:43.450Z,89.33
2023-03-06T03:28:12.432Z,89.33
2023-03-06T03:30:42.786Z,89.26
2023-03-06T03:33:14.376Z,89.27
2023-03-06T03:35:46.596Z,89.41
2023-03-06T03:38:15.576Z,89.51
2023-03-06T03:40:44.989Z,89.47
2023-03-06T03:43:14.129Z,89.54
2023-03-06T03:45:44.436Z,89.52
2023-03-06T03:48:18.097Z,89.52
2023-03-06T03:50:47.260Z,89.43
2023-03-06T03:53:16.816Z,89.38
2023-03-06T03:55:47.961Z,89.38
2023-03-06T03:58:18.485Z,89.45
2023-03-06T04:00:51.000Z,89.37
2023-03-06T04:03:20.465Z,89.41
2023-03-06T04:05:49.488Z,89.40
2023-03-06T04:08:21.800Z,89.32
2023-03-06T04:10:51.606Z,89.32
2023-03-06T04:13:23.730Z,89.32
2023-03-06T04:15:59.203Z,89.23
2023-03-06T04:18:31.170Z,89.21
2023-03-06T04:21:07.408Z,89.22
2023-03-06T04:23:36.525Z,89.25
2023-03-06T04:26:09.612Z,89.32
2023-03-06T04:28:38.653Z,89.41
2023-03-06T04:31:08.113Z,89.41
2023-03-06T04:33:41.055Z,89.36
2023-03-06T04:36:24.739Z,89.35
2023-03-06T04:38:57.691Z,89.30
2023-03-06T04:41:26.925Z,89.31
2023-03-06T04:43:59.003Z,89.37
2023-03-06T04:46:52.427Z,89.33
2023-03-06T04:49:21.857Z,89.16
2023-03-06T04:51:50.967Z,89.07
2023-03-06T04:54:19.831Z,89.11
2023-03-06T04:56:52.578Z,89.13
2023-03-06T04:59:24.020Z,89.05
2023-03-06T05:01:54.096Z,88.95
2023-03-06T05:04:24.778Z,88.82
2023-03-06T05:07:02.043Z,88.78
2023-03-06T05:09:31.122Z,88.78
2023-03-06T05:12:02.654Z,88.74
2023-03-06T05:14:33.717Z,88.73
2023-03-06T05:17:05.161Z,88.73
2023-03-06T05:19:34.189Z,88.77
2023-03-06T05:22:05.602Z,88.78
2023-03-06T05:24:34.569Z,88.83
2023-03-06T05:27:10.007Z,88.81
2023-03-06T05:29:39.018Z,88.79
2023-03-06T05:32:09.018Z,88.76
2023-03-06T05:34:40.107Z,88.77
2023-03-06T05:37:09.351Z,88.77
2023-03-06T05:39:38.642Z,88.74
2023-03-06T05:42:10.917Z,88.74
2023-03-06T05:44:41.274Z,88.85
2023-03-06T05:47:12.896Z,88.90
2023-03-06T05:49:42.122Z,88.97
2023-03-06T05:52:13.085Z,89.03
2023-03-06T05:54:42.539Z,89.07
2023-03-06T05:57:11.957Z,89.14
2023-03-06T05:59:40.829Z,89.25
2023-03-06T06:02:11.002Z,89.23
2023-03-06T06:04:39.910Z,89.32
2023-03-06T06:07:12.534Z,89.40
2023-03-06T06:09:42.957Z,89.48
2023-03-06T06:12:12.979Z,89.56
2023-03-06T06:14:43.225Z,89.64
2023-03-06T06:17:12.437Z,89.73
2023-03-06T06:19:41.371Z,89.91
2023-03-06T06:22:11.146Z,90.05
2023-03-06T06:24:40.108Z,90.19
2023-03-06T06:27:10.036Z,90.24
2023-03-06T06:29:39.034Z,90.24
2023-03-06T06:32:08.569Z,90.33
2023-03-06T06:34:40.185Z,90.39
2023-03-06T06:37:11.977Z,90.43
2023-03-06T06:39:42.033Z,90.53
2023-03-06T06:42:29.443Z,90.52
2023-03-06T06:45:01.330Z,90.43
2023-03-06T06:47:30.353Z,90.47
2023-03-06T06:49:59.926Z,90.34
2023-03-06T06:52:28.806Z,90.18
2023-03-06T06:55:00.242Z,90.15
2023-03-06T06:57:29.634Z,89.96
2023-03-06T06:59:59.774Z,89.76
2023-03-06T07:02:28.798Z,89.38
2023-03-06T07:05:05.941Z,88.80
2023-03-06T07:07:36.696Z,88.23
2023-03-06T07:10:08.694Z,87.77
2023-03-06T07:12:38.280Z,87.14
2023-03-06T07:15:13.508Z,86.33
2023-03-06T07:17:43.347Z,85.47
2023-03-06T07:20:15.331Z,83.94
2023-03-06T07:22:51.256Z,82.83
2023-03-06T07:25:22.607Z,81.63
2023-03-06T07:27:54.645Z,81.03
2023-03-06T07:30:25.399Z,78.80
2023-03-06T07:32:57.150Z,77.85
2023-03-06T07:35:27.941Z,78.61
2023-03-06T07:37:58.724Z,77.51
2023-03-06T07:40:28.134Z,70.41
2023-03-06T07:43:13.038Z,66.46
2023-03-06T07:45:58.521Z,61.29
2023-03-06T07:48:29.269Z,61.16
2023-03-06T07:51:01.237Z,58.22
2023-03-06T07:53:30.545Z,56.12
2023-03-06T07:55:59.546Z,56.45
2023-03-06T07:58:28.325Z,56.56
2023-03-06T08:00:57.884Z,54.68
2023-03-06T08:03:27.096Z,54.81
2023-03-06T08:06:06.373Z,50.39
2023-03-06T08:08:35.654Z,50.94
2023-03-06T08:11:09.062Z,47.78
2023-03-06T08:13:38.259Z,47.76
2023-03-06T08:16:09.170Z,50.57
2023-03-06T08:18:39.426Z,52.62
2023-03-06T08:21:11.201Z,53.25
2023-03-06T08:23:41.169Z,55.75
2023-03-06T08:26:14.228Z,56.39
2023-03-06T08:28:43.012Z,57.80
2023-03-06T08:31:21.024Z,58.26
2023-03-06T08:33:50.329Z,59.07
2023-03-06T08:36:20.223Z,59.40
2023-03-06T08:38:49.128Z,61.00
2023-03-06T08:41:20.229Z,61.30
2023-03-06T08:43:49.585Z,62.26
2023-03-06T08:46:21.879Z,61.83
2023-03-06T08:48:51.202Z,61.61
2023-03-06T08:51:21.622Z,62.69
2023-03-06T08:53:51.215Z,63.46
2023-03-06T08:56:23.601Z,64.19
2023-03-06T08:58:53.634Z,64.30
2023-03-06T09:01:24.816Z,64.54
2023-03-06T09:03:57.116Z,63.83
2023-03-06T09:06:27.805Z,64.35
2023-03-06T09:08:58.713Z,64.29
2023-03-06T09:11:28.445Z,64.62
2023-03-06T09:13:59.447Z,65.20
2023-03-06T09:16:31.482Z,65.40
2023-03-06T09:19:00.539Z,65.86
2023-03-06T09:21:29.851Z,66.41
2023-03-06T09:23:59.922Z,66.82
2023-03-06T09:26:43.258Z,67.14
2023-03-06T09:29:17.132Z,67.20
2023-03-06T09:31:57.951Z,67.78
2023-03-06T09:34:27.351Z,68.04
2023-03-06T09:36:57.801Z,68.41
2023-03-06T09:39:26.936Z,68.58
2023-03-06T09:41:58.841Z,69.14
2023-03-06T09:44:30.896Z,69.71
2023-03-06T09:47:25.084Z,69.72
2023-03-06T09:50:13.264Z,69.80
2023-03-06T09:52:57.474Z,69.94
2023-03-06T09:55:30.176Z,70.01
2023-03-06T09:58:02.587Z,70.30
2023-03-06T10:00:36.906Z,70.27
2023-03-06T10:03:15.309Z,70.19
2023-03-06T10:05:52.402Z,69.95
2023-03-06T10:08:31.326Z,69.59
2023-03-06T10:11:03.134Z,69.96
2023-03-06T10:13:39.260Z,70.47
2023-03-06T10:16:22.875Z,70.56
2023-03-06T10:18:57.300Z,69.15
2023-03-06T10:21:38.068Z,69.18
2023-03-06T10:24:19.353Z,70.06
2023-03-06T10:26:58.078Z,69.56
2023-03-06T10:29:56.391Z,70.48
2023-03-06T10:32:48.564Z,71.51
2023-03-06T10:35:23.836Z,72.08
2023-03-06T10:38:04.614Z,72.14
2023-03-06T10:40:44.334Z,72.75
2023-03-06T10:43:13.245Z,72.68
2023-03-06T10:45:53.938Z,72.67
2023-03-06T10:48:25.267Z,72.69
2023-03-06T10:51:18.649Z,72.39
2023-03-06T10:53:54.531Z,72.52
2023-03-06T10:56:29.511Z,73.24
2023-03-06T10:59:11.970Z,73.06
2023-03-06T11:01:50.297Z,73.55
2023-03-06T11:04:26.128Z,74.49
2023-03-06T11:07:14.523Z,74.13
2023-03-06T11:09:47.227Z,73.92
2023-03-06T11:12:23.653Z,74.64
2023-03-06T11:15:17.204Z,75.11
2023-03-06T11:17:53.477Z,75.01
2023-03-06T11:20:27.146Z,75.12
2023-03-06T11:23:03.191Z,75.47
2023-03-06T11:25:36.901Z,76.15
2023-03-06T11:28:13.867Z,76.35
2023-03-06T11:30:47.311Z,77.12
2023-03-06T11:33:22.527Z,77.15
2023-03-06T11:35:57.841Z,76.77
2023-03-06T11:38:36.153Z,76.58
2023-03-06T11:41:13.806Z,76.30
2023-03-06T11:43:52.844Z,76.19
2023-03-06T11:46:26.471Z,76.29
2023-03-06T11:49:06.214Z,76.31
2023-03-06T11:51:42.714Z,76.68
2023-03-06T11:54:13.786Z,77.04
2023-03-06T11:56:52.540Z,77.59
2023-03-06T12:00:05.606Z,78.23
2023-03-06T12:02:57.576Z,78.31
2023-03-06T12:05:36.847Z,78.01
2023-03-06T12:08:23.252Z,78.14
2023-03-06T12:10:57.993Z,78.39
2023-03-06T12:13:58.633Z,78.74
2023-03-06T12:16:43.735Z,79.19
2023-03-06T12:19:30.314Z,79.01
2023-03-06T12:22:21.377Z,79.02
2023-03-06T12:25:07.318Z,79.12
2023-03-06T12:27:45.231Z,80.26
2023-03-06T12:30:36.335Z,80.26
2023-03-06T12:33:16.884Z,80.49
2023-03-06T12:35:57.991Z,80.92
2023-03-06T12:38:51.599Z,81.36
2023-03-06T12:41:31.343Z,81.62
2023-03-06T12:44:26.031Z,81.53
2023-03-06T12:47:02.160Z,81.41
2023-03-06T12:49:34.031Z,80.96
2023-03-06T12:52:07.114Z,81.36
2023-03-06T12:54:40.438Z,81.70
2023-03-06T12:57:14.595Z,81.73
2023-03-06T12:59:47.440Z,80.81
2023-03-06T13:02:45.052Z,80.55
2023-03-06T13:05:45.894Z,82.02
2023-03-06T13:08:34.843Z,81.44
2023-03-06T13:11:23.136Z,82.20
2023-03-06T13:13:52.304Z,81.51
2023-03-06T13:16:30.400Z,81.67
2023-03-06T13:19:18.377Z,81.88
2023-03-06T13:22:01.320Z,81.98
2023-03-06T13:24:33.044Z,81.98
2023-03-06T13:27:05.677Z,81.38
2023-03-06T13:30:21.240Z,83.08
2023-03-06T13:32:52.877Z,83.51
2023-03-06T13:35:52.019Z,84.00
2023-03-06T13:38:54.358Z,84.10
2023-03-06T13:41:58.114Z,84.26
2023-03-06T13:44:50.489Z,84.12
2023-03-06T13:48:10.636Z,84.81
2023-03-06T13:50:36.495Z,85.47
2023-03-06T13:53:47.441Z,85.45
2023-03-06T13:56:41.129Z,85.54
2023-03-06T13:59:25.325Z,85.80
2023-03-06T14:02:09.890Z,86.01
2023-03-06T14:04:53.262Z,85.73
2023-03-06T14:07:26.200Z,86.07
2023-03-06T14:10:11.035Z,86.33
2023-03-06T14:13:01.973Z,85.90
2023-03-06T14:15:43.943Z,86.25
2023-03-06T14:18:20.364Z,86.33
2023-03-06T14:20:55.171Z,86.59
2023-03-06T14:23:28.204Z,86.65
2023-03-06T14:26:03.758Z,86.69
2023-03-06T14:28:35.926Z,86.58
2023-03-06T14:31:06.642Z,86.60
2023-03-06T14:33:42.970Z,86.70
2023-03-06T14:36:16.990Z,86.73
2023-03-06T14:38:48.646Z,86.70
2023-03-06T14:41:25.975Z,86.86
2023-03-06T14:44:17.201Z,86.67
2023-03-06T14:46:49.784Z,87.04
2023-03-06T14:49:20.462Z,87.13
2023-03-06T14:51:51.537Z,87.12
2023-03-06T14:54:24.593Z,87.34
2023-03-06T14:56:57.710Z,87.44
2023-03-06T14:59:29.411Z,86.69
2023-03-06T15:02:02.703Z,87.62
2023-03-06T15:04:38.876Z,87.83
2023-03-06T15:07:12.995Z,87.79
2023-03-06T15:09:54.530Z,88.11
2023-03-06T15:12:38.086Z,88.24
2023-03-06T15:15:29.739Z,88.67
2023-03-06T15:18:00.310Z,88.81
2023-03-06T15:20:45.354Z,88.76
2023-03-06T15:23:21.119Z,88.70
2023-03-06T15:25:57.421Z,88.93
2023-03-06T15:28:33.767Z,88.64
2023-03-06T15:31:21.396Z,88.93
2023-03-06T15:34:17.953Z,88.80
2023-03-06T15:36:48.439Z,88.76
2023-03-06T15:39:40.882Z,88.93
2023-03-06T15:42:19.830Z,88.94
2023-03-06T15:44:52.836Z,89.28
2023-03-06T15:47:23.208Z,89.06
2023-03-06T15:49:52.718Z,89.10
2023-03-06T15:52:22.288Z,89.16
2023-03-06T15:54:54.344Z,89.16
2023-03-06T15:57:26.053Z,89.04
2023-03-06T15:59:56.792Z,88.94
2023-03-06T16:02:25.968Z,88.88
2023-03-06T16:04:54.884Z,88.91
2023-03-06T16:07:28.030Z,88.90
2023-03-06T16:09:57.803Z,88.71
2023-03-06T16:12:29.640Z,88.73
2023-03-06T16:15:02.175Z,88.98
2023-03-06T16:17:31.196Z,88.91
2023-03-06T16:20:00.028Z,89.08
2023-03-06T16:22:28.929Z,89.05
2023-03-06T16:25:00.269Z,89.05
2023-03-06T16:27:29.492Z,89.08
2023-03-06T16:29:58.889Z,89.13
2023-03-06T16:32:28.872Z,89.12
2023-03-06T16:35:00.014Z,89.29
2023-03-06T16:37:29.062Z,89.36
2023-03-06T16:40:00.519Z,89.31
2023-03-06T16:42:29.934Z,89.59
2023-03-06T16:45:00.649Z,89.58
2023-03-06T16:47:31.471Z,89.55
2023-03-06T16:50:01.658Z,89.79
2023-03-06T16:52:31.276Z,89.72
2023-03-06T16:55:00.233Z,89.88
2023-03-06T16:57:35.022Z,89.67
2023-03-06T17:00:06.548Z,89.96
2023-03-06T17:02:36.022Z,89.81
2023-03-06T17:05:06.749Z,90.03
2023-03-06T17:07:37.799Z,90.05
2023-03-06T17:10:09.924Z,89.95
2023-03-06T17:12:39.155Z,90.00
2023-03-06T17:15:10.855Z,90.17
2023-03-06T17:17:41.455Z,90.19
2023-03-06T17:20:16.350Z,90.28
2023-03-06T17:22:45.477Z,90.17
2023-03-06T17:25:23.862Z,90.28
2023-03-06T17:27:52.968Z,90.22
2023-03-06T17:30:22.166Z,90.23
2023-03-06T17:32:53.090Z,90.26
2023-03-06T17:35:21.993Z,90.33
2023-03-06T17:37:54.427Z,90.27
2023-03-06T17:40:23.316Z,90.26
2023-03-06T17:42:53.602Z,90.30
2023-03-06T17:45:22.374Z,90.35
2023-03-06T17:47:57.253Z,90.41
2023-03-06T17:50:26.312Z,90.28
2023-03-06T17:52:58.499Z,90.11
2023-03-06T17:55:28.468Z,90.07
2023-03-06T17:57:58.493Z,90.18
2023-03-06T18:00:27.701Z,90.16
2023-03-06T18:02:57.614Z,90.27
2023-03-06T18:05:26.930Z,90.26
2023-03-06T18:07:59.013Z,90.18
2023-03-06T18:10:29.561Z,90.25
2023-03-06T18:12:59.614Z,90.28
2023-03-06T18:15:28.839Z,90.25
2023-03-06T18:18:00.902Z,90.33
2023-03-06T18:20:29.977Z,90.28
2023-03-06T18:23:03.069Z,90.32
2023-03-06T18:25:32.097Z,90.23
2023-03-06T18:28:01.573Z,90.23
2023-03-06T18:30:30.681Z,90.15
2023-03-06T18:33:00.324Z,90.13
2023-03-06T18:35:29.665Z,90.32
2023-03-06T18:38:01.518Z,90.17
2023-03-06T18:40:31.926Z,90.29
2023-03-06T18:43:08.627Z,90.39
2023-03-06T18:45:40.693Z,90.36
2023-03-06T18:48:11.472Z,90.23
2023-03-06T18:50:46.247Z,90.21
2023-03-06T18:53:15.289Z,90.13
2023-03-06T18:55:48.579Z,90.07
2023-03-06T18:58:19.794Z,90.07
2023-03-06T19:00:49.527Z,90.19
2023-03-06T19:03:18.928Z,90.02
2023-03-06T19:05:49.397Z,90.22
2023-03-06T19:08:19.219Z,90.14
2023-03-06T19:10:49.641Z,89.95
2023-03-06T19:13:18.906Z,89.84
2023-03-06T19:15:49.055Z,89.78
2023-03-06T19:18:18.779Z,89.54
2023-03-06T19:20:47.710Z,89.47
2023-03-06T19:23:17.007Z,89.46
2023-03-06T19:25:57.074Z,89.49
2023-03-06T19:28:27.775Z,89.52
2023-03-06T19:31:08.622Z,89.47
2023-03-06T19:33:45.705Z,89.49
2023-03-06T19:36:17.938Z,89.40
2023-03-06T19:39:01.937Z,89.41
2023-03-06T19:41:32.527Z,89.35
2023-03-06T19:44:06.058Z,89.22
2023-03-06T19:46:36.183Z,89.35
2023-03-06T19:49:12.217Z,89.36
2023-03-06T19:51:44.761Z,89.38
2023-03-06T19:54:14.545Z,89.38
2023-03-06T19:56:47.894Z,89.27
2023-03-06T19:59:19.139Z,89.23
2023-03-06T20:01:53.512Z,89.15
2023-03-06T20:04:25.351Z,89.00
2023-03-06T20:07:04.805Z,89.03
2023-03-06T20:09:35.224Z,89.07
2023-03-06T20:12:08.941Z,89.04
2023-03-06T20:14:54.795Z,89.09
2023-03-06T20:17:27.324Z,89.12
2023-03-06T20:20:02.869Z,89.04
2023-03-06T20:22:35.311Z,89.08
2023-03-06T20:25:10.482Z,89.16
2023-03-06T20:27:44.793Z,89.15
2023-03-06T20:30:18.845Z,89.14
2023-03-06T20:32:56.034Z,89.27
2023-03-06T20:35:26.831Z,89.25
2023-03-06T20:38:00.985Z,89.35
2023-03-06T20:40:32.495Z,89.36
2023-03-06T20:43:03.570Z,89.34
2023-03-06T20:45:35.479Z,89.43
2023-03-06T20:48:08.839Z,89.56
2023-03-06T20:50:41.250Z,89.67
2023-03-06T20:53:11.098Z,89.59
2023-03-06T20:55:40.036Z,89.67
2023-03-06T20:58:09.177Z,89.78
2023-03-06T21:00:38.110Z,89.93
2023-03-06T21:03:09.769Z,89.98
2023-03-06T21:05:38.624Z,90.05
2023-03-06T21:08:08.019Z,90.14
2023-03-06T21:10:38.708Z,90.24
2023-03-06T21:13:07.702Z,90.28
2023-03-06T21:15:38.725Z,90.35
2023-03-06T21:18:09.435Z,90.43
2023-03-06T21:20:39.679Z,90.51
2023-03-06T21:23:08.978Z,90.55
2023-03-06T21:25:46.037Z,90.57
2023-03-06T21:28:23.148Z,90.57
2023-03-06T21:30:55.388Z,90.57
2023-03-06T21:33:26.185Z,90.66
2023-03-06T21:35:55.080Z,90.70
2023-03-06T21:38:25.418Z,90.64
2023-03-06T21:40:55.770Z,90.60
2023-03-06T21:43:25.432Z,90.76
2023-03-06T21:45:58.698Z,90.83
2023-03-06T21:48:27.694Z,90.81
2023-03-06T21:51:07.162Z,90.89
2023-03-06T21:53:36.971Z,90.81
2023-03-06T21:56:08.110Z,90.92
2023-03-06T21:58:37.621Z,90.86
2023-03-06T22:01:10.884Z,91.08
2023-03-06T22:03:40.054Z,90.85
2023-03-06T22:06:11.621Z,90.88
2023-03-06T22:08:42.616Z,90.81
2023-03-06T22:11:13.607Z,91.01
2023-03-06T22:13:43.354Z,91.00
2023-03-06T22:16:12.603Z,91.07
2023-03-06T22:18:45.370Z,91.06
2023-03-06T22:21:16.946Z,91.06
2023-03-06T22:23:57.842Z,90.97
2023-03-06T22:26:28.069Z,91.10
2023-03-06T22:28:58.598Z,90.98
2023-03-06T22:31:28.530Z,90.72
2023-03-06T22:34:00.213Z,90.42
2023-03-06T22:36:30.521Z,90.64
2023-03-06T22:39:03.646Z,90.66
2023-03-06T22:41:32.648Z,90.56
2023-03-06T22:44:02.505Z,90.29
2023-03-06T22:46:33.144Z,90.57
2023-03-06T22:49:04.535Z,90.42
2023-03-06T22:51:33.371Z,90.55
2023-03-06T22:54:02.378Z,90.59
2023-03-06T22:56:31.641Z,90.57
2023-03-06T22:59:00.743Z,90.47
2023-03-06T23:01:31.818Z,89.73
2023-03-06T23:04:04.312Z,89.81
2023-03-06T23:06:35.173Z,89.87
2023-03-06T23:09:06.700Z,90.03
2023-03-06T23:11:54.804Z,90.22
2023-03-06T23:14:43.157Z,90.33
2023-03-06T23:17:31.048Z,89.94
2023-03-06T23:20:23.295Z,89.92
2023-03-06T23:23:11.694Z,89.28
2023-03-06T23:25:44.567Z,89.28
2023-03-06T23:28:13.624Z,89.08
2023-03-06T23:30:43.270Z,88.80
2023-03-06T23:33:12.331Z,88.54
2023-03-06T23:35:44.041Z,88.30
2023-03-06T23:38:13.156Z,88.74
2023-03-06T23:40:42.267Z,88.82
2023-03-06T23:43:11.157Z,88.72
2023-03-06T23:45:40.332Z,88.54
2023-03-06T23:48:09.222Z,88.59
2023-03-06T23:50:42.024Z,88.60
2023-03-06T23:53:14.433Z,88.42
2023-03-06T23:55:43.942Z,88.65
2023-03-06T23:58:15.203Z,88.25
